Time;durP1;ratioP1;P1;durP2;ratioP2;P2;SDS_P1;SDS_P2;PMS_P1;PMS_P2;Temp;Humidity;BMP_temperature;BMP_pressure;BME280_temperature;BME280_humidity;BME280_pressure;Samples;Min_cycle;Max_cycle;Signal;HPM_P1;HPM_P2
2024/04/13 00:01:33;;;;;;;3.15;2.95;;;11.80;99.90;;;;;;5402961;26;20376;-79
2024/04/13 00:03:58;;;;;;;3.70;3.20;;;11.50;99.90;;;;;;5412681;26;20395;-79
2024/04/13 00:06:24;;;;;;;4.80;3.63;;;11.50;99.90;;;;;;5396977;26;20412;-79
2024/04/13 00:08:50;;;;;;;4.00;3.28;;;11.50;99.90;;;;;;5413129;26;20434;-79
2024/04/13 00:11:15;;;;;;;4.30;3.60;;;11.70;99.90;;;;;;5400204;26;20335;-79
2024/04/13 00:13:41;;;;;;;3.90;2.92;;;11.20;99.90;;;;;;5405395;26;20331;-79
2024/04/13 00:16:07;;;;;;;4.70;3.20;;;11.30;99.90;;;;;;5411166;26;20343;-79
2024/04/13 00:18:33;;;;;;;5.15;3.13;;;11.30;99.90;;;;;;5411736;26;20356;-79
2024/04/13 00:20:59;;;;;;;7.53;3.30;;;11.20;99.90;;;;;;5408452;26;20320;-79
2024/04/13 00:23:24;;;;;;;4.18;3.78;;;11.20;99.90;;;;;;5415042;26;20371;-79
2024/04/13 00:25:51;;;;;;;4.88;3.35;;;11.00;99.90;;;;;;5415177;26;20319;-79
2024/04/13 00:28:17;;;;;;;3.78;3.38;;;11.00;99.90;;;;;;5412087;26;20745;-79
2024/04/13 00:30:43;;;;;;;3.80;3.50;;;11.00;99.90;;;;;;5412552;26;20378;-79
2024/04/13 00:33:12;;;;;;;3.55;3.25;;;;;;;;;;5410876;26;20335;-79
2024/04/13 00:35:39;;;;;;;3.70;3.40;;;10.90;99.90;;;;;;5397489;26;20384;-79
2024/04/13 00:38:04;;;;;;;4.15;3.70;;;10.40;99.90;;;;;;5401255;26;20360;-79
2024/04/13 00:40:30;;;;;;;4.43;3.30;;;10.80;99.90;;;;;;5414077;26;20683;-79
2024/04/13 00:43:11;;;;;;;3.53;3.20;;;10.60;99.90;;;;;;5413892;26;20355;-79
2024/04/13 00:45:45;;;;;;;3.95;3.35;;;10.50;99.90;;;;;;5378734;26;20372;-79
2024/04/13 00:48:24;;;;;;;3.40;3.10;;;10.70;99.90;;;;;;5410859;26;20378;-79
2024/04/13 00:50:58;;;;;;;4.05;3.40;;;10.90;99.90;;;;;;5406268;26;20369;-79
2024/04/13 00:53:24;;;;;;;3.13;2.83;;;10.60;99.90;;;;;;5399133;26;20328;-78
2024/04/13 00:55:53;;;;;;;4.38;2.90;;;11.00;99.90;;;;;;5414233;26;20406;-79
2024/04/13 00:58:25;;;;;;;4.25;3.60;;;10.50;99.90;;;;;;5393101;26;20322;-79
2024/04/13 01:00:52;;;;;;;4.78;3.08;;;10.40;99.90;;;;;;5380249;26;20334;-79
2024/04/13 01:03:20;;;;;;;3.95;3.20;;;10.30;99.90;;;;;;5384894;26;20324;-79
2024/04/13 01:05:48;;;;;;;4.15;3.30;;;10.30;99.90;;;;;;5417450;26;20688;-79
2024/04/13 01:08:14;;;;;;;4.05;3.25;;;10.20;99.90;;;;;;5416359;26;20350;-78
2024/04/13 01:10:41;;;;;;;3.50;3.20;;;10.40;99.90;;;;;;5415200;26;20729;-78
2024/04/13 01:13:08;;;;;;;3.60;3.10;;;10.40;99.90;;;;;;5414379;26;20358;-78
2024/04/13 01:15:36;;;;;;;3.70;3.20;;;10.30;99.90;;;;;;5397274;26;20330;-78
2024/04/13 01:18:05;;;;;;;3.67;3.35;;;10.20;99.90;;;;;;5411188;26;20693;-78
2024/04/13 01:20:33;;;;;;;4.00;3.40;;;10.40;99.90;;;;;;5414065;26;20838;-78
2024/04/13 01:23:00;;;;;;;3.70;2.83;;;11.00;99.90;;;;;;5415397;26;20977;-78
2024/04/13 01:25:25;;;;;;;2.90;2.60;;;10.40;99.90;;;;;;5414508;26;20340;-78
2024/04/13 01:27:51;;;;;;;3.80;3.13;;;10.40;99.90;;;;;;5399196;26;20734;-78
2024/04/13 01:30:17;;;;;;;4.68;3.63;;;10.50;99.90;;;;;;5380705;26;20338;-78
2024/04/13 01:32:44;;;;;;;3.10;2.80;;;10.10;99.90;;;;;;5380845;26;21101;-78
2024/04/13 01:35:11;;;;;;;4.07;3.63;;;10.40;99.90;;;;;;5398855;26;20331;-78
2024/04/13 01:37:41;;;;;;;3.83;3.03;;;10.60;99.90;;;;;;5414650;26;20368;-79
2024/04/13 01:40:08;;;;;;;4.63;3.10;;;10.30;99.90;;;;;;5416761;26;20324;-78
2024/04/13 01:42:35;;;;;;;2.75;2.47;;;10.40;99.90;;;;;;5413277;26;20380;-78
2024/04/13 01:45:00;;;;;;;3.25;2.95;;;10.40;99.90;;;;;;5415648;26;20331;-78
2024/04/13 01:47:26;;;;;;;4.40;3.00;;;10.20;99.90;;;;;;5406175;26;20416;-78
2024/04/13 01:49:52;;;;;;;3.75;3.38;;;10.20;99.90;;;;;;5393214;26;20327;-78
2024/04/13 01:52:17;;;;;;;4.63;3.22;;;10.30;99.90;;;;;;5414780;26;20371;-79
2024/04/13 01:54:43;;;;;;;3.40;3.00;;;10.10;99.90;;;;;;5414675;26;20709;-78
2024/04/13 01:57:08;;;;;;;3.90;3.00;;;10.30;99.90;;;;;;5416193;26;20355;-78
2024/04/13 01:59:34;;;;;;;3.75;3.00;;;10.00;99.90;;;;;;5415361;26;20324;-78
2024/04/13 02:02:01;;;;;;;3.40;3.10;;;10.40;99.90;;;;;;5415754;26;20370;-78
2024/04/13 02:04:27;;;;;;;5.77;3.33;;;10.10;99.90;;;;;;5415477;26;20331;-79
2024/04/13 02:06:52;;;;;;;3.80;3.30;;;10.70;99.90;;;;;;5381768;26;20374;-78
2024/04/13 02:09:18;;;;;;;3.50;3.20;;;9.90;99.90;;;;;;5412948;26;20372;-78
2024/04/13 02:11:45;;;;;;;3.30;3.00;;;10.20;99.90;;;;;;5415781;26;20368;-78
2024/04/13 02:14:11;;;;;;;4.18;3.25;;;10.10;99.90;;;;;;5414981;26;20320;-78
2024/04/13 02:16:37;;;;;;;4.35;2.90;;;9.80;99.90;;;;;;5413300;26;20320;-78
2024/04/13 02:19:04;;;;;;;3.30;3.00;;;10.10;99.90;;;;;;5413977;26;20512;-78
2024/04/13 02:21:30;;;;;;;3.30;3.00;;;10.00;99.90;;;;;;5396015;26;20380;-78
2024/04/13 02:27:18;;;;;;;3.47;2.95;;;9.90;99.90;;;;;;5404604;26;20354;-78
2024/04/13 02:29:44;;;;;;;3.63;2.72;;;9.90;99.90;;;;;;5401399;26;20326;-78
2024/04/13 02:32:10;;;;;;;3.00;2.80;;;9.70;99.90;;;;;;5413784;26;20324;-78
2024/04/13 02:34:35;;;;;;;3.47;3.17;;;10.70;99.90;;;;;;5414987;26;20311;-78
2024/04/13 02:37:00;;;;;;;4.20;3.40;;;9.50;99.90;;;;;;5414847;26;20319;-77
2024/04/13 02:39:26;;;;;;;4.70;3.10;;;9.70;99.90;;;;;;5414980;26;20343;-78
2024/04/13 02:41:52;;;;;;;4.32;3.00;;;9.80;99.90;;;;;;5414753;26;20661;-78
2024/04/13 02:44:18;;;;;;;3.65;2.75;;;9.80;99.90;;;;;;5414737;26;20680;-78
2024/04/13 02:46:43;;;;;;;3.22;2.88;;;9.50;99.90;;;;;;5414746;26;20324;-78
2024/04/13 02:49:09;;;;;;;3.58;3.20;;;9.50;99.90;;;;;;5414899;26;20347;-79
2024/04/13 02:51:35;;;;;;;3.83;2.92;;;9.90;99.90;;;;;;5411232;26;20685;-79
2024/04/13 02:54:01;;;;;;;3.90;3.17;;;9.50;99.90;;;;;;5415060;26;20327;-78
2024/04/13 02:56:28;;;;;;;3.53;3.03;;;9.80;99.90;;;;;;5414884;26;20815;-78
2024/04/13 02:58:53;;;;;;;2.75;2.55;;;9.80;99.90;;;;;;5417803;26;20335;-79
2024/04/13 03:01:19;;;;;;;3.17;2.80;;;9.80;99.90;;;;;;5414138;26;20328;-78
2024/04/13 03:03:44;;;;;;;3.20;2.90;;;9.60;99.90;;;;;;5414104;26;20376;-79
2024/04/13 03:06:14;;;;;;;3.00;2.80;;;9.80;99.90;;;;;;5412696;26;20875;-78
2024/04/13 03:08:40;;;;;;;2.95;2.70;;;9.80;99.90;;;;;;5414624;26;20315;-78
2024/04/13 03:11:08;;;;;;;2.75;2.33;;;9.80;99.90;;;;;;5445266;21;20374;-83
2024/04/13 03:13:34;;;;;;;2.90;2.70;;;9.70;99.90;;;;;;5438894;26;20384;-83
2024/04/13 03:16:03;;;;;;;3.72;2.97;;;9.80;99.90;;;;;;5446764;26;20782;-83
2024/04/13 03:18:38;;;;;;;3.72;2.90;;;10.00;99.90;;;;;;5434830;26;20401;-83
2024/04/13 03:21:04;;;;;;;2.95;2.70;;;9.90;99.90;;;;;;5444485;26;20433;-83
2024/04/13 03:23:32;;;;;;;3.30;2.80;;;9.70;99.90;;;;;;5460633;26;20347;-82
2024/04/13 03:25:58;;;;;;;3.10;2.90;;;9.80;99.90;;;;;;5454725;26;20340;-83
2024/04/13 03:28:32;;;;;;;3.42;3.13;;;9.50;99.90;;;;;;5450507;26;20363;-82
2024/04/13 03:30:57;;;;;;;3.38;2.83;;;10.00;99.90;;;;;;5458270;26;20331;-83
2024/04/13 03:33:23;;;;;;;3.50;2.60;;;9.70;99.90;;;;;;5450040;26;20397;-83
2024/04/13 03:35:49;;;;;;;4.47;3.00;;;9.50;99.90;;;;;;5441962;26;20362;-83
2024/04/13 03:38:14;;;;;;;3.90;2.70;;;9.60;99.90;;;;;;5436722;26;20827;-83
2024/04/13 03:40:40;;;;;;;3.97;2.80;;;10.00;99.90;;;;;;5453782;26;20337;-84
2024/04/13 03:43:06;;;;;;;3.00;2.70;;;9.70;99.90;;;;;;5452872;26;20352;-83
2024/04/13 03:45:35;;;;;;;2.77;2.57;;;9.60;99.90;;;;;;5453039;26;20476;-83
2024/04/13 03:48:01;;;;;;;4.47;3.00;;;10.00;99.90;;;;;;5448227;26;20347;-83
2024/04/13 03:50:26;;;;;;;3.70;2.90;;;9.90;99.90;;;;;;5453703;26;20336;-83
2024/04/13 03:52:52;;;;;;;3.00;2.70;;;9.90;99.90;;;;;;5462249;26;20670;-83
2024/04/13 03:55:17;;;;;;;3.73;2.80;;;9.60;99.90;;;;;;5429345;26;20331;-83
2024/04/13 03:57:43;;;;;;;3.90;3.20;;;9.80;99.90;;;;;;5448479;26;20323;-83
2024/04/13 04:00:09;;;;;;;2.67;2.40;;;10.00;99.90;;;;;;5458065;26;20400;-82
2024/04/13 04:02:35;;;;;;;2.70;2.50;;;9.90;99.90;;;;;;5459369;26;20327;-83
2024/04/13 04:05:02;;;;;;;3.95;2.80;;;10.20;99.90;;;;;;5459837;26;20321;-82
2024/04/13 04:07:27;;;;;;;4.95;3.20;;;10.00;99.90;;;;;;5448706;26;20323;-83
2024/04/13 04:09:53;;;;;;;3.40;3.05;;;10.00;99.90;;;;;;5465463;26;20676;-83
2024/04/13 04:12:19;;;;;;;4.68;4.25;;;11.20;99.90;;;;;;5438256;26;20329;-83
2024/04/13 04:14:44;;;;;;;6.00;4.07;;;9.90;99.90;;;;;;5440872;26;20358;-83
2024/04/13 04:17:10;;;;;;;5.63;4.60;;;9.80;99.90;;;;;;5443580;26;20317;-84
2024/04/13 04:19:35;;;;;;;4.60;4.07;;;9.80;99.90;;;;;;5455256;26;20317;-84
2024/04/13 04:22:01;;;;;;;3.85;3.30;;;9.70;99.90;;;;;;5452062;26;20430;-84
2024/04/13 04:24:26;;;;;;;2.97;2.78;;;9.90;99.90;;;;;;5442729;26;20712;-84
2024/04/13 04:26:52;;;;;;;3.30;2.70;;;9.50;99.90;;;;;;5447293;26;20327;-84
2024/04/13 04:29:17;;;;;;;2.80;2.60;;;9.90;99.90;;;;;;5449526;26;20366;-84
2024/04/13 04:31:43;;;;;;;2.88;2.65;;;9.90;99.90;;;;;;5442665;26;20825;-84
2024/04/13 04:34:09;;;;;;;3.10;2.80;;;9.90;99.90;;;;;;5454093;26;20366;-86
2024/04/13 04:36:35;;;;;;;4.05;3.10;;;9.70;99.90;;;;;;5444398;26;20344;-83
2024/04/13 04:39:01;;;;;;;4.30;2.60;;;9.70;99.90;;;;;;5450680;26;20325;-84
2024/04/13 04:41:27;;;;;;;3.17;2.88;;;9.80;99.90;;;;;;5446709;26;20357;-84
2024/04/13 04:43:53;;;;;;;3.22;2.92;;;9.50;99.90;;;;;;5450100;26;20317;-83
2024/04/13 04:46:20;;;;;;;3.15;2.85;;;9.50;99.90;;;;;;5446075;26;20347;-84
2024/04/13 04:48:49;;;;;;;5.65;2.90;;;9.70;99.90;;;;;;5445590;26;20741;-85
2024/04/13 04:51:15;;;;;;;6.32;3.20;;;10.10;99.90;;;;;;5440119;26;20336;-84
2024/04/13 04:53:41;;;;;;;4.90;3.10;;;9.80;99.90;;;;;;5451357;26;20407;-85
2024/04/13 04:56:06;;;;;;;3.00;2.70;;;9.50;99.90;;;;;;5450903;26;20317;-85
2024/04/13 04:58:32;;;;;;;3.90;2.90;;;10.00;99.90;;;;;;5451846;26;20313;-85
2024/04/13 05:00:58;;;;;;;7.00;3.10;;;10.30;99.90;;;;;;5442949;26;20323;-85
2024/04/13 05:03:24;;;;;;;3.80;2.93;;;10.00;99.90;;;;;;5442775;26;20367;-84
2024/04/13 05:05:50;;;;;;;3.30;3.00;;;10.10;99.90;;;;;;5448406;26;20369;-85
2024/04/13 05:08:16;;;;;;;3.20;2.83;;;9.60;99.90;;;;;;5446076;26;20357;-84
2024/04/13 05:10:42;;;;;;;4.90;3.25;;;10.00;99.90;;;;;;5448076;26;20317;-84
2024/04/13 05:13:08;;;;;;;3.65;2.80;;;9.80;99.90;;;;;;5451389;26;20393;-84
2024/04/13 05:15:34;;;;;;;4.20;3.00;;;9.40;99.90;;;;;;5442365;26;20358;-83
2024/04/13 05:18:03;;;;;;;3.60;3.10;;;9.40;99.90;;;;;;5450259;26;20321;-84
2024/04/13 05:20:28;;;;;;;3.30;3.00;;;9.60;99.90;;;;;;5448129;26;20323;-83
2024/04/13 05:22:54;;;;;;;3.63;2.83;;;9.70;99.90;;;;;;5442680;26;21303;-83
2024/04/13 05:25:20;;;;;;;3.70;2.97;;;9.60;99.90;;;;;;5440989;26;20323;-84
2024/04/13 05:27:45;;;;;;;4.00;3.20;;;9.60;99.90;;;;;;5450466;26;20317;-84
2024/04/13 05:30:11;;;;;;;3.50;3.20;;;9.60;99.90;;;;;;5450679;26;20763;-83
2024/04/13 05:32:37;;;;;;;3.65;3.05;;;9.80;99.90;;;;;;5442782;26;20708;-83
2024/04/13 05:35:03;;;;;;;3.90;2.80;;;9.40;99.90;;;;;;5432606;26;20376;-83
2024/04/13 05:37:28;;;;;;;3.35;3.05;;;10.40;99.90;;;;;;5446647;26;20375;-84
2024/04/13 05:39:54;;;;;;;3.30;3.00;;;9.80;99.90;;;;;;5450906;26;20321;-84
2024/04/13 05:42:20;;;;;;;2.70;2.50;;;10.10;99.90;;;;;;5441146;26;20333;-83
2024/04/13 05:44:45;;;;;;;4.65;3.35;;;9.70;99.90;;;;;;5437946;26;20374;-84
2024/04/13 05:47:11;;;;;;;4.72;3.67;;;10.10;99.90;;;;;;5439996;26;20371;-84
2024/04/13 05:49:37;;;;;;;3.40;3.10;;;10.10;99.90;;;;;;5454777;26;20424;-83
2024/04/13 05:52:03;;;;;;;6.30;3.10;;;10.20;99.90;;;;;;5438272;26;20384;-84
2024/04/13 05:54:29;;;;;;;3.53;3.22;;;10.30;99.90;;;;;;5430490;26;20373;-83
2024/04/13 05:56:55;;;;;;;4.73;3.40;;;10.10;99.90;;;;;;5444227;26;20316;-83
2024/04/13 05:59:20;;;;;;;3.90;3.60;;;10.50;99.90;;;;;;5427016;26;20867;-83
2024/04/13 06:01:46;;;;;;;3.17;2.90;;;10.20;99.90;;;;;;5440554;26;20336;-83
2024/04/13 06:04:11;;;;;;;4.75;3.30;;;10.50;99.90;;;;;;5433985;26;20325;-83
2024/04/13 06:06:37;;;;;;;3.47;3.17;;;10.30;99.90;;;;;;5444159;26;20839;-83
2024/04/13 06:09:05;;;;;;;4.63;3.30;;;10.70;99.90;;;;;;5452107;26;20410;-83
2024/04/13 06:11:31;;;;;;;4.50;3.30;;;11.00;99.90;;;;;;5452673;26;20430;-83
2024/04/13 06:13:56;;;;;;;4.47;3.30;;;10.90;99.90;;;;;;5455808;26;20325;-83
2024/04/13 06:16:22;;;;;;;3.90;2.67;;;11.00;99.90;;;;;;5446195;26;20355;-83
2024/04/13 06:18:47;;;;;;;3.15;2.85;;;11.00;99.90;;;;;;5438858;26;20336;-82
2024/04/13 06:21:13;;;;;;;3.47;2.87;;;11.30;99.90;;;;;;5438027;26;20339;-82
2024/04/13 06:23:38;;;;;;;3.00;2.80;;;11.20;99.90;;;;;;5440705;26;20411;-83
2024/04/13 06:26:07;;;;;;;4.68;3.33;;;10.70;99.90;;;;;;5448485;26;20320;-83
2024/04/13 06:28:32;;;;;;;3.08;2.78;;;11.50;99.90;;;;;;5452879;26;20371;-83
2024/04/13 06:30:58;;;;;;;3.70;3.23;;;11.60;99.90;;;;;;5445478;26;20341;-83
2024/04/13 06:33:24;;;;;;;3.73;3.00;;;11.70;99.90;;;;;;5454456;26;20438;-83
2024/04/13 06:35:50;;;;;;;3.10;2.90;;;;;;;;;;5447324;26;20867;-83
2024/04/13 06:38:21;;;;;;;4.00;2.80;;;12.10;99.90;;;;;;5439081;26;20325;-83
2024/04/13 06:40:47;;;;;;;3.80;3.40;;;12.10;99.90;;;;;;5432489;26;20337;-83
2024/04/13 06:43:12;;;;;;;5.05;3.03;;;11.90;99.90;;;;;;5428887;26;20357;-83
2024/04/13 06:45:38;;;;;;;4.17;3.03;;;11.90;99.90;;;;;;5426751;26;20431;-83
2024/04/13 06:48:05;;;;;;;4.60;2.90;;;12.50;99.90;;;;;;5433903;26;20325;-83
2024/04/13 06:50:31;;;;;;;5.22;3.15;;;12.30;99.90;;;;;;5433238;26;20333;-83
2024/04/13 06:52:56;;;;;;;5.30;3.40;;;12.30;99.90;;;;;;5430462;26;20327;-83
2024/04/13 06:55:22;;;;;;;3.77;3.47;;;12.30;99.90;;;;;;5430023;26;20420;-82
2024/04/13 06:57:47;;;;;;;5.15;3.42;;;12.30;99.90;;;;;;5424502;26;20324;-83
2024/04/13 07:00:13;;;;;;;3.27;3.00;;;12.40;99.90;;;;;;5430252;26;20371;-84
2024/04/13 07:02:38;;;;;;;3.63;3.30;;;12.50;99.90;;;;;;5429006;26;20364;-85
2024/04/13 07:05:06;;;;;;;3.60;3.30;;;12.20;99.90;;;;;;5425093;26;20379;-86
2024/04/13 07:07:32;;;;;;;4.88;3.40;;;11.70;99.90;;;;;;5428771;26;20661;-84
2024/04/13 07:09:58;;;;;;;5.05;3.40;;;12.50;99.90;;;;;;5430620;26;20317;-84
2024/04/13 07:12:23;;;;;;;3.43;3.13;;;13.10;99.90;;;;;;5428772;26;20340;-83
2024/04/13 07:14:49;;;;;;;3.93;3.03;;;13.10;99.90;;;;;;5427974;26;20395;-82
2024/04/13 07:17:15;;;;;;;4.00;2.60;;;12.90;99.90;;;;;;5426518;26;20347;-82
2024/04/13 07:19:40;;;;;;;3.60;2.40;;;12.70;99.90;;;;;;5425711;26;20352;-84
2024/04/13 07:22:06;;;;;;;3.40;2.60;;;13.50;99.90;;;;;;5430564;26;20697;-83
2024/04/13 07:24:31;;;;;;;3.17;2.70;;;13.60;99.90;;;;;;5429093;26;20348;-83
2024/04/13 07:26:57;;;;;;;4.30;2.95;;;13.40;99.90;;;;;;5426593;26;20320;-82
2024/04/13 07:29:22;;;;;;;4.10;3.00;;;13.70;99.90;;;;;;5427005;26;20380;-83
2024/04/13 07:31:48;;;;;;;5.35;3.30;;;14.40;99.90;;;;;;5425579;26;20317;-83
2024/04/13 07:34:13;;;;;;;4.53;3.53;;;14.00;99.90;;;;;;5438650;26;20343;-83
2024/04/13 07:36:39;;;;;;;4.80;3.50;;;14.10;99.90;;;;;;5434476;26;20877;-83
2024/04/13 07:39:04;;;;;;;4.25;3.42;;;13.80;99.90;;;;;;5426807;26;20921;-82
2024/04/13 07:41:30;;;;;;;4.00;3.60;;;15.00;99.90;;;;;;5441486;26;20341;-83
2024/04/13 07:43:55;;;;;;;4.77;3.63;;;14.60;99.90;;;;;;5434639;26;20406;-83
2024/04/13 07:46:21;;;;;;;3.67;3.37;;;13.70;99.90;;;;;;5448867;26;20504;-83
2024/04/13 07:48:47;;;;;;;4.30;3.65;;;14.80;99.90;;;;;;5436298;26;20329;-82
2024/04/13 07:51:12;;;;;;;4.90;4.38;;;15.20;99.90;;;;;;5433539;26;20677;-82
2024/04/13 07:53:38;;;;;;;3.70;3.40;;;14.30;99.90;;;;;;5428889;26;20426;-81
2024/04/13 07:56:04;;;;;;;5.43;3.33;;;15.00;99.90;;;;;;5431440;26;20336;-83
2024/04/13 07:58:29;;;;;;;5.80;3.55;;;15.10;99.90;;;;;;5433253;26;20396;-82
2024/04/13 08:00:55;;;;;;;3.90;3.50;;;15.50;99.90;;;;;;5430364;26;20371;-82
2024/04/13 08:03:22;;;;;;;4.55;3.60;;;15.00;99.90;;;;;;5443301;26;20380;-82
2024/04/13 08:05:48;;;;;;;4.70;3.60;;;15.60;99.90;;;;;;5429734;26;20804;-84
2024/04/13 08:08:13;;;;;;;4.57;3.60;;;15.10;99.90;;;;;;5431635;26;20340;-82
2024/04/13 08:10:42;;;;;;;4.80;3.90;;;15.50;99.90;;;;;;5428413;26;20376;-82
2024/04/13 08:13:09;;;;;;;4.40;4.00;;;15.20;99.90;;;;;;5432409;26;20689;-83
2024/04/13 08:15:39;;;;;;;4.83;4.03;;;15.20;99.90;;;;;;5448695;26;20332;-83
2024/04/13 08:18:05;;;;;;;4.32;3.92;;;16.00;99.90;;;;;;5451941;26;20357;-83
2024/04/13 08:20:30;;;;;;;5.15;3.90;;;15.60;99.90;;;;;;5430118;26;20321;-82
2024/04/13 08:22:56;;;;;;;5.70;4.10;;;15.80;99.90;;;;;;5437155;26;20662;-84
2024/04/13 08:25:21;;;;;;;4.30;3.90;;;15.30;99.90;;;;;;5430794;26;20365;-83
2024/04/13 08:27:47;;;;;;;5.28;4.10;;;15.60;99.90;;;;;;5441232;26;20356;-82
2024/04/13 08:30:12;;;;;;;4.77;4.27;;;16.00;99.90;;;;;;5447800;26;20779;-84
2024/04/13 08:32:38;;;;;;;5.70;4.23;;;16.50;99.90;;;;;;5448284;26;20797;-83
2024/04/13 08:35:05;;;;;;;4.72;4.22;;;16.30;99.90;;;;;;5437997;26;21146;-85
2024/04/13 08:37:31;;;;;;;4.80;4.40;;;16.30;99.90;;;;;;5432117;26;20324;-85
2024/04/13 08:39:57;;;;;;;4.50;4.10;;;16.00;99.90;;;;;;5430372;26;20321;-85
2024/04/13 08:42:52;;;;;;;6.00;4.20;;;16.80;99.90;;;;;;5430309;26;20454;-85
2024/04/13 08:45:18;;;;;;;6.35;4.32;;;17.40;99.90;;;;;;5464722;26;20328;-84
2024/04/13 08:47:45;;;;;;;4.72;4.10;;;16.30;99.90;;;;;;5440133;26;20346;-84
2024/04/13 08:50:11;;;;;;;4.40;3.83;;;16.20;99.90;;;;;;5435355;26;20381;-83
2024/04/13 08:52:37;;;;;;;6.22;4.10;;;17.00;99.90;;;;;;5437406;26;20910;-83
2024/04/13 08:55:04;;;;;;;5.20;3.80;;;16.80;99.90;;;;;;5440014;26;20341;-84
2024/04/13 08:57:33;;;;;;;7.32;3.53;;;17.20;99.90;;;;;;5456221;26;20425;-81
2024/04/13 09:00:02;;;;;;;5.55;3.30;;;16.80;99.90;;;;;;5456389;26;20348;-82
2024/04/13 09:02:33;;;;;;;5.22;3.50;;;17.50;99.90;;;;;;5459216;26;20315;-84
2024/04/13 09:04:58;;;;;;;6.32;3.70;;;17.20;99.90;;;;;;5460657;26;20326;-87
2024/04/13 09:07:24;;;;;;;7.28;3.70;;;16.80;99.90;;;;;;5449154;26;20328;-84
2024/04/13 09:09:53;;;;;;;5.80;3.40;;;16.40;99.90;;;;;;5446684;26;20336;-84
2024/04/13 09:12:19;;;;;;;5.05;3.28;;;17.80;99.90;;;;;;5442900;26;20325;-83
2024/04/13 09:14:45;;;;;;;3.50;3.20;;;17.10;99.90;;;;;;5464071;26;20324;-83
2024/04/13 09:17:11;;;;;;;5.47;3.75;;;17.40;99.90;;;;;;5450215;26;20320;-83
2024/04/13 09:19:37;;;;;;;5.53;3.75;;;16.70;99.90;;;;;;5458024;26;20333;-83
2024/04/13 09:22:03;;;;;;;4.27;3.87;;;;;;;;;;5471887;26;20329;-84
2024/04/13 09:24:42;;;;;;;9.13;4.05;;;17.60;99.90;;;;;;5452073;26;20324;-82
2024/04/13 09:27:20;;;;;;;10.05;3.85;;;17.80;99.90;;;;;;5468834;26;20332;-83
2024/04/13 09:29:47;;;;;;;6.43;3.67;;;17.70;99.90;;;;;;5447434;26;20348;-83
2024/04/13 09:32:25;;;;;;;4.68;3.72;;;18.40;99.90;;;;;;5462953;26;20858;-83
2024/04/13 09:34:55;;;;;;;5.47;3.83;;;17.70;99.90;;;;;;5469422;26;20356;-82
2024/04/13 09:37:21;;;;;;;4.80;3.92;;;18.00;99.90;;;;;;5442937;26;20375;-83
2024/04/13 09:39:46;;;;;;;4.95;3.50;;;18.20;99.90;;;;;;5455348;26;20720;-84
2024/04/13 09:42:13;;;;;;;3.93;3.23;;;18.60;99.90;;;;;;5439918;26;20426;-83
2024/04/13 09:44:39;;;;;;;6.63;3.58;;;19.20;99.90;;;;;;5447965;26;20340;-84
2024/04/13 09:47:05;;;;;;;5.75;3.30;;;18.80;99.90;;;;;;5435992;26;20339;-84
2024/04/13 09:49:30;;;;;;;3.60;3.10;;;18.40;99.90;;;;;;5453007;26;20529;-85
2024/04/13 09:51:56;;;;;;;3.10;2.70;;;18.80;99.90;;;;;;5444362;26;20414;-84
2024/04/13 09:54:28;;;;;;;4.77;3.30;;;18.70;99.90;;;;;;5453853;26;20325;-84
2024/04/13 09:56:54;;;;;;;5.13;2.80;;;18.70;99.90;;;;;;5452629;26;20404;-81
2024/04/13 09:59:21;;;;;;;3.47;2.80;;;18.90;99.90;;;;;;5450126;26;20334;-84
2024/04/13 10:01:50;;;;;;;3.67;3.10;;;19.40;99.90;;;;;;5453605;26;20669;-82
2024/04/13 10:04:16;;;;;;;5.32;2.72;;;18.90;99.90;;;;;;5448523;26;20348;-83
2024/04/13 10:06:44;;;;;;;5.30;3.70;;;19.30;99.90;;;;;;5442053;26;20324;-82
2024/04/13 10:09:16;;;;;;;4.65;3.25;;;19.30;99.90;;;;;;5447315;26;20324;-83
2024/04/13 10:11:44;;;;;;;4.57;2.70;;;19.90;99.90;;;;;;5438674;26;20333;-86
2024/04/13 10:14:13;;;;;;;4.60;3.20;;;19.20;99.90;;;;;;5446434;26;20329;-82
2024/04/13 10:16:41;;;;;;;5.45;3.30;;;19.30;99.90;;;;;;5456121;26;20388;-81
2024/04/13 10:19:10;;;;;;;3.63;3.10;;;19.40;99.90;;;;;;5446749;26;20405;-85
2024/04/13 10:21:37;;;;;;;3.80;3.00;;;20.20;99.90;;;;;;5453706;26;20359;-84
2024/04/13 10:24:03;;;;;;;3.00;2.78;;;20.70;99.90;;;;;;5445559;26;20325;-83
2024/04/13 10:26:29;;;;;;;5.83;3.20;;;19.80;99.90;;;;;;5452310;26;20718;-83
2024/04/13 10:29:01;;;;;;;6.50;3.15;;;19.60;99.90;;;;;;5446143;26;20325;-84
2024/04/13 10:31:31;;;;;;;4.40;3.50;;;20.40;99.90;;;;;;5456130;26;20325;-84
2024/04/13 10:33:57;;;;;;;7.40;3.60;;;20.00;99.90;;;;;;5456098;26;20345;-83
2024/04/13 10:36:31;;;;;;;4.20;3.10;;;20.50;99.90;;;;;;5435705;26;20328;-85
2024/04/13 10:38:57;;;;;;;4.70;3.10;;;20.70;99.90;;;;;;5440084;26;20388;-83
2024/04/13 10:41:49;;;;;;;6.65;3.17;;;20.20;99.90;;;;;;5451682;26;20360;-82
2024/04/13 10:44:24;;;;;;;5.85;3.22;;;20.40;99.90;;;;;;5447397;26;20317;-83
2024/04/13 10:46:50;;;;;;;5.50;3.05;;;20.20;99.90;;;;;;5451986;26;20321;-84
2024/04/13 10:49:17;;;;;;;4.20;3.50;;;20.10;99.90;;;;;;5453799;26;21395;-84
2024/04/13 10:51:46;;;;;;;4.72;3.20;;;20.70;99.90;;;;;;5449719;26;20325;-83
2024/04/13 10:54:13;;;;;;;6.43;3.30;;;20.70;99.90;;;;;;5451554;26;20392;-82
2024/04/13 10:56:38;;;;;;;3.97;3.17;;;20.00;99.90;;;;;;5456495;26;20914;-83
2024/04/13 10:59:07;;;;;;;4.40;2.60;;;20.50;99.90;;;;;;5456925;26;20328;-83
2024/04/13 11:01:33;;;;;;;5.03;3.10;;;20.30;99.90;;;;;;5440629;26;20329;-85
2024/04/13 11:04:05;;;;;;;3.80;2.72;;;20.60;99.90;;;;;;5447192;26;20408;-83
2024/04/13 11:06:31;;;;;;;3.88;2.70;;;21.20;99.90;;;;;;5446712;26;20386;-82
2024/04/13 11:08:57;;;;;;;5.05;2.97;;;20.70;99.90;;;;;;5447613;26;20321;-84
2024/04/13 11:11:25;;;;;;;4.07;2.70;;;21.00;99.90;;;;;;5450496;26;20346;-83
2024/04/13 11:13:51;;;;;;;6.20;2.70;;;21.10;99.90;;;;;;5457302;26;20396;-84
2024/04/13 11:16:16;;;;;;;5.10;2.40;;;21.30;99.90;;;;;;5463020;26;20414;-82
2024/04/13 11:18:42;;;;;;;5.30;2.60;;;20.80;99.90;;;;;;5450179;26;20446;-83
2024/04/13 11:21:11;;;;;;;2.60;2.30;;;21.60;1.00;;;;;;5451271;26;20321;-83
2024/04/13 11:23:38;;;;;;;4.50;2.75;;;21.80;1.00;;;;;;5443520;26;20368;-83
2024/04/13 11:26:04;;;;;;;6.65;2.83;;;21.70;1.00;;;;;;5442480;26;20335;-82
2024/04/13 11:28:30;;;;;;;2.60;2.00;;;22.00;1.00;;;;;;5428027;26;20359;-82
2024/04/13 11:30:55;;;;;;;2.58;2.38;;;22.30;1.00;;;;;;5431540;26;20329;-83
2024/04/13 11:33:22;;;;;;;4.63;2.80;;;22.40;1.00;;;;;;5427829;26;20408;-82
2024/04/13 11:35:57;;;;;;;2.70;2.30;;;23.20;1.00;;;;;;5432999;26;20315;-81
2024/04/13 11:38:23;;;;;;;3.90;2.50;;;22.90;1.00;;;;;;5436944;26;20317;-83
2024/04/13 11:40:50;;;;;;;5.20;2.90;;;23.70;1.00;;;;;;5446798;26;20329;-83
2024/04/13 11:43:16;;;;;;;5.28;2.70;;;23.70;1.00;;;;;;5454368;26;20848;-81
2024/04/13 11:45:42;;;;;;;3.37;2.50;;;24.00;1.00;;;;;;5447930;26;20469;-81
2024/04/13 11:48:08;;;;;;;3.58;2.50;;;24.00;1.00;;;;;;5461419;26;20360;-82
2024/04/13 11:50:33;;;;;;;2.80;2.10;;;23.90;1.00;;;;;;5458080;26;20377;-83
2024/04/13 11:53:00;;;;;;;2.35;2.15;;;23.90;1.00;;;;;;5466553;26;20374;-81
2024/04/13 11:55:31;;;;;;;3.10;2.40;;;24.00;1.00;;;;;;5432600;26;20331;-82
2024/04/13 11:57:57;;;;;;;3.65;2.60;;;24.20;1.00;;;;;;5455815;26;20321;-83
2024/04/13 12:00:23;;;;;;;3.50;2.45;;;24.50;1.00;;;;;;5456501;26;20328;-82
2024/04/13 12:02:49;;;;;;;4.30;2.50;;;24.50;1.00;;;;;;5455438;26;20320;-82
2024/04/13 12:05:15;;;;;;;3.43;2.90;;;24.10;1.00;;;;;;5454694;26;20474;-83
2024/04/13 12:07:41;;;;;;;3.10;2.80;;;24.80;1.00;;;;;;5429950;26;20321;-83
2024/04/13 12:10:08;;;;;;;3.00;2.40;;;24.30;1.00;;;;;;5454854;26;21267;-84
2024/04/13 12:12:33;;;;;;;3.90;2.30;;;24.80;1.00;;;;;;5445577;26;20339;-83
2024/04/13 12:14:59;;;;;;;4.70;2.40;;;24.70;1.00;;;;;;5443380;26;20423;-83
2024/04/13 12:17:25;;;;;;;3.47;2.20;;;25.00;1.00;;;;;;5452890;26;20340;-83
2024/04/13 12:19:51;;;;;;;3.53;2.23;;;25.40;1.00;;;;;;5456500;26;20335;-84
2024/04/13 12:22:16;;;;;;;6.05;2.80;;;24.40;1.00;;;;;;5448752;26;20941;-83
2024/04/13 12:24:42;;;;;;;3.00;2.70;;;24.60;1.00;;;;;;5439818;26;20337;-83
2024/04/13 12:27:08;;;;;;;2.72;2.50;;;24.10;1.00;;;;;;5439320;26;21035;-83
2024/04/13 12:29:33;;;;;;;3.00;2.23;;;23.90;1.00;;;;;;5456222;26;20836;-83
2024/04/13 12:32:00;;;;;;;3.28;2.20;;;25.30;1.00;;;;;;5452878;26;20346;-82
2024/04/13 12:34:26;;;;;;;2.80;2.20;;;25.40;1.00;;;;;;5458193;26;20328;-83
2024/04/13 12:36:52;;;;;;;2.70;2.20;;;25.20;1.00;;;;;;5463831;26;20372;-84
2024/04/13 12:39:18;;;;;;;3.17;2.20;;;25.40;1.00;;;;;;5460429;26;20335;-83
2024/04/13 12:41:43;;;;;;;3.97;2.33;;;25.50;1.00;;;;;;5474621;26;20363;-81
2024/04/13 12:44:09;;;;;;;3.90;2.50;;;25.00;1.00;;;;;;5464641;26;20321;-84
2024/04/13 12:46:35;;;;;;;3.03;2.40;;;24.90;1.00;;;;;;5449525;26;20336;-83
2024/04/13 12:49:01;;;;;;;4.93;2.65;;;25.00;1.00;;;;;;5453998;26;20321;-84
2024/04/13 12:51:27;;;;;;;3.00;2.50;;;24.80;1.00;;;;;;5454099;26;20375;-82